Time;durP1;ratioP1;P1;durP2;ratioP2;P2;SDS_P1;SDS_P2;PMS_P1;PMS_P2;Temp;Humidity;BMP_temperature;BMP_pressure;BME280_temperature;BME280_humidity;BME280_pressure;Samples;Min_cycle;Max_cycle;Signal;HPM_P1;HPM_P2
2021/11/09 00:00:57;;;;;;;10.30;2.47;;;22.10;99.90;;;;;;5091368;28;20178;-71
2021/11/09 00:03:25;;;;;;;13.93;3.10;;;22.00;99.90;;;;;;5089662;28;20201;-72
2021/11/09 00:05:58;;;;;;;10.17;2.90;;;22.10;99.90;;;;;;5076937;28;20261;-72
2021/11/09 00:08:30;;;;;;;14.30;3.23;;;22.00;99.90;;;;;;5088053;28;20664;-73
2021/11/09 00:10:58;;;;;;;11.30;2.30;;;22.00;99.90;;;;;;5091299;28;20264;-72
2021/11/09 00:13:25;;;;;;;13.60;2.97;;;21.80;99.90;;;;;;5084151;28;20210;-73
2021/11/09 00:15:53;;;;;;;11.60;2.60;;;21.80;99.90;;;;;;5077473;28;20251;-73
2021/11/09 00:18:20;;;;;;;15.87;3.07;;;21.80;99.90;;;;;;5075536;28;20190;-71
2021/11/09 00:20:48;;;;;;;17.53;3.07;;;21.90;99.90;;;;;;5092244;28;20241;-72
2021/11/09 00:23:15;;;;;;;12.30;3.43;;;21.80;99.90;;;;;;5091945;28;20289;-72
2021/11/09 00:25:43;;;;;;;12.60;2.83;;;21.70;99.90;;;;;;5088687;28;20171;-70
2021/11/09 00:28:12;;;;;;;15.03;2.70;;;21.60;99.90;;;;;;5078722;28;20667;-72
2021/11/09 00:30:41;;;;;;;14.70;3.03;;;21.60;99.90;;;;;;5066887;28;20210;-73
2021/11/09 00:33:09;;;;;;;17.63;3.10;;;21.70;99.90;;;;;;5068700;28;20517;-73
2021/11/09 00:35:37;;;;;;;14.30;2.87;;;22.00;99.90;;;;;;5073986;28;20261;-74
2021/11/09 00:38:10;;;;;;;9.80;2.67;;;22.00;99.90;;;;;;5078440;28;20189;-71
2021/11/09 00:40:40;;;;;;;11.10;2.60;;;22.30;99.90;;;;;;5074388;28;20195;-77
2021/11/09 00:43:09;;;;;;;12.47;3.00;;;22.30;99.90;;;;;;5079450;28;20205;-72
2021/11/09 00:45:37;;;;;;;15.20;2.63;;;22.50;99.90;;;;;;5073234;28;20215;-72
2021/11/09 00:48:05;;;;;;;10.23;2.80;;;22.60;99.90;;;;;;5075125;28;20181;-73
2021/11/09 00:50:33;;;;;;;15.67;3.00;;;23.00;99.90;;;;;;5076159;28;20576;-71
2021/11/09 00:53:01;;;;;;;11.30;2.47;;;23.10;99.90;;;;;;5075015;28;20219;-73
2021/11/09 00:55:29;;;;;;;11.90;2.67;;;23.20;99.90;;;;;;5078759;28;20178;-73
2021/11/09 00:57:56;;;;;;;12.20;2.60;;;23.20;99.90;;;;;;5074358;28;20614;-74
2021/11/09 01:00:28;;;;;;;9.90;2.17;;;23.20;99.90;;;;;;5082179;28;20167;-72
2021/11/09 01:02:56;;;;;;;16.53;3.00;;;23.20;99.90;;;;;;5073367;28;20203;-75
2021/11/09 01:05:25;;;;;;;12.40;3.27;;;22.80;99.90;;;;;;5074481;28;20577;-72
2021/11/09 01:07:57;;;;;;;15.07;3.50;;;23.00;99.90;;;;;;5074690;28;20187;-72
2021/11/09 01:10:28;;;;;;;12.23;2.57;;;23.40;99.90;;;;;;5074460;28;20179;-71
2021/11/09 01:12:56;;;;;;;13.80;3.00;;;23.80;99.90;;;;;;5085197;28;20215;-71
2021/11/09 01:15:23;;;;;;;13.57;2.57;;;24.20;99.90;;;;;;5081371;28;20178;-73
2021/11/09 01:17:52;;;;;;;10.90;3.23;;;24.60;99.90;;;;;;5095068;28;20197;-72
2021/11/09 01:20:22;;;;;;;16.07;2.63;;;24.30;99.90;;;;;;5095366;28;20236;-72
2021/11/09 01:22:53;;;;;;;8.03;2.10;;;24.10;99.90;;;;;;5078299;28;20214;-73
2021/11/09 01:25:21;;;;;;;13.97;2.87;;;23.60;99.90;;;;;;5088927;28;20195;-72
2021/11/09 01:27:49;;;;;;;9.87;2.87;;;23.30;99.90;;;;;;5085287;28;20185;-73
2021/11/09 01:30:19;;;;;;;9.17;2.50;;;23.20;99.90;;;;;;5074071;28;20190;-72
2021/11/09 01:32:49;;;;;;;10.67;2.80;;;23.20;99.90;;;;;;5087285;28;20186;-72
2021/11/09 01:35:17;;;;;;;13.10;2.90;;;23.20;99.90;;;;;;5074534;28;20297;-72
2021/11/09 01:37:45;;;;;;;8.93;2.47;;;23.30;99.90;;;;;;5073623;28;20179;-73
2021/11/09 01:40:13;;;;;;;11.37;4.27;;;23.30;99.90;;;;;;5070486;28;20229;-72
2021/11/09 01:42:40;;;;;;;14.53;5.73;;;23.20;99.90;;;;;;5073044;28;20179;-73
2021/11/09 01:45:10;;;;;;;11.40;2.60;;;23.30;99.90;;;;;;5072202;28;20291;-72
2021/11/09 01:47:38;;;;;;;12.10;3.13;;;23.50;99.90;;;;;;5073486;28;20222;-75
2021/11/09 01:50:08;;;;;;;8.80;2.23;;;23.70;99.90;;;;;;5073500;28;20641;-72
2021/11/09 01:52:36;;;;;;;13.20;2.37;;;23.80;99.90;;;;;;5074139;28;20206;-73
2021/11/09 01:55:06;;;;;;;15.83;2.93;;;23.90;99.90;;;;;;5077828;28;20187;-73
2021/11/09 01:57:33;;;;;;;11.97;2.70;;;24.30;99.90;;;;;;5073927;28;20269;-70
2021/11/09 02:00:03;;;;;;;10.23;2.50;;;24.30;99.90;;;;;;5078106;28;20191;-73
2021/11/09 02:02:31;;;;;;;16.53;2.70;;;24.00;99.90;;;;;;5072630;28;20183;-72
2021/11/09 02:04:59;;;;;;;12.87;2.50;;;24.10;99.90;;;;;;5072848;28;20171;-72
2021/11/09 02:07:26;;;;;;;12.83;3.63;;;24.40;99.90;;;;;;5077605;28;20266;-72
2021/11/09 02:09:54;;;;;;;20.90;3.67;;;24.70;99.90;;;;;;5078434;28;20194;-73
2021/11/09 02:12:21;;;;;;;11.27;2.80;;;25.20;99.90;;;;;;5080063;28;20225;-71
2021/11/09 02:14:48;;;;;;;12.57;3.17;;;25.40;99.90;;;;;;5076358;28;20247;-74
2021/11/09 02:17:16;;;;;;;13.67;2.70;;;25.70;99.90;;;;;;5075142;28;20175;-74
2021/11/09 02:19:44;;;;;;;11.33;2.33;;;25.60;99.90;;;;;;5078430;28;20213;-71
2021/11/09 02:22:12;;;;;;;11.87;2.00;;;25.60;99.90;;;;;;5068909;28;20549;-72
2021/11/09 02:24:40;;;;;;;11.13;2.70;;;25.90;99.90;;;;;;5071263;28;20565;-73
2021/11/09 02:27:07;;;;;;;12.60;2.77;;;25.60;99.90;;;;;;5076693;28;20676;-71
2021/11/09 02:29:36;;;;;;;15.27;2.20;;;24.90;99.90;;;;;;5073165;28;20178;-75
2021/11/09 02:32:06;;;;;;;10.60;2.63;;;24.70;99.90;;;;;;5076464;28;20193;-72
2021/11/09 02:34:33;;;;;;;10.23;2.53;;;25.00;99.90;;;;;;5074849;28;20203;-72
2021/11/09 02:37:00;;;;;;;8.93;2.50;;;25.30;99.90;;;;;;5073067;28;20175;-73
2021/11/09 02:39:28;;;;;;;7.03;2.03;;;25.60;99.90;;;;;;5071843;28;20176;-77
2021/11/09 02:41:55;;;;;;;10.07;1.90;;;26.30;99.90;;;;;;5068910;28;20188;-73
2021/11/09 02:44:26;;;;;;;7.67;2.60;;;26.90;99.90;;;;;;5069997;28;20688;-73
2021/11/09 02:46:57;;;;;;;12.40;2.57;;;26.20;99.90;;;;;;5078123;28;20644;-73
2021/11/09 02:49:29;;;;;;;11.40;2.63;;;25.80;99.90;;;;;;5071885;28;20214;-72
2021/11/09 02:52:02;;;;;;;8.07;2.43;;;26.60;99.90;;;;;;5077628;28;20187;-72
2021/11/09 02:54:37;;;;;;;11.27;2.20;;;26.80;99.90;;;;;;5074690;28;20183;-72
2021/11/09 02:57:09;;;;;;;8.57;2.53;;;26.40;99.90;;;;;;5069509;28;20190;-71
2021/11/09 03:05:00;;;;;;;9.43;2.10;;;26.40;99.90;;;;;;5075137;28;20211;-71
2021/11/09 03:07:34;;;;;;;10.70;2.07;;;26.10;99.90;;;;;;5074283;28;20191;-72
2021/11/09 03:10:09;;;;;;;13.77;3.30;;;26.70;99.90;;;;;;5074304;28;20268;-70
2021/11/09 03:12:40;;;;;;;13.30;3.50;;;26.40;99.90;;;;;;5072348;28;20402;-71
2021/11/09 03:15:11;;;;;;;8.33;2.10;;;26.70;99.90;;;;;;5073733;28;20194;-68
2021/11/09 03:17:48;;;;;;;7.60;2.63;;;26.80;99.90;;;;;;5073971;28;20179;-69
2021/11/09 03:20:44;;;;;;;11.20;2.90;;;26.10;99.90;;;;;;5074393;28;20263;-71
2021/11/09 03:47:25;;;;;;;10.60;2.40;;;27.80;99.20;;;;;;5069768;28;20183;-74
2021/11/09 03:49:53;;;;;;;8.07;2.43;;;27.60;99.70;;;;;;5070859;28;20210;-72
2021/11/09 03:52:28;;;;;;;12.77;2.70;;;27.70;99.20;;;;;;5067098;28;20176;-71
2021/11/09 03:55:02;;;;;;;7.60;2.47;;;27.40;99.90;;;;;;5079036;28;20236;-70
2021/11/09 03:57:34;;;;;;;10.93;2.60;;;26.90;99.80;;;;;;5072098;28;20277;-70
2021/11/09 04:02:53;;;;;;;10.40;2.73;;;27.70;99.00;;;;;;5069467;28;20210;-70
2021/11/09 04:05:22;;;;;;;5.23;1.70;;;28.00;98.50;;;;;;5070971;28;20221;-70
2021/11/09 04:08:01;;;;;;;8.20;2.37;;;27.40;99.00;;;;;;5078526;28;20176;-70
2021/11/09 04:10:57;;;;;;;9.60;1.97;;;26.80;99.00;;;;;;5075136;28;20579;-71
2021/11/09 04:13:42;;;;;;;9.47;2.47;;;27.20;99.70;;;;;;5070317;28;20628;-72
2021/11/09 04:30:21;;;;;;;9.47;2.60;;;27.70;98.90;;;;;;5027529;28;20180;-72
2021/11/09 04:35:31;;;;;;;7.93;2.00;;;27.90;98.90;;;;;;5060904;28;20202;-73
2021/11/09 04:38:52;;;;;;;5.07;1.60;;;27.50;98.80;;;;;;5071147;28;20263;-75
2021/11/09 04:52:07;;;;;;;6.47;1.90;;;27.90;99.30;;;;;;5070151;28;20213;-72
2021/11/09 05:08:35;;;;;;;8.10;2.30;;;27.30;98.60;;;;;;5069148;28;20185;-71
2021/11/09 05:11:03;;;;;;;6.20;1.87;;;27.30;99.60;;;;;;5069108;28;20187;-71
2021/11/09 05:13:30;;;;;;;7.03;1.80;;;27.30;99.30;;;;;;5068010;28;20239;-70
2021/11/09 05:15:58;;;;;;;8.17;1.47;;;27.40;99.20;;;;;;5070723;28;20660;-74
2021/11/09 05:18:26;;;;;;;4.97;1.80;;;27.10;99.40;;;;;;5070991;28;20192;-72
2021/11/09 05:20:54;;;;;;;7.53;1.53;;;27.20;99.60;;;;;;5077946;28;20552;-72
2021/11/09 05:23:22;;;;;;;7.07;1.90;;;27.30;99.50;;;;;;5072666;28;20211;-72
2021/11/09 05:25:50;;;;;;;8.63;2.23;;;26.80;99.80;;;;;;5072149;28;20190;-73
2021/11/09 05:28:18;;;;;;;4.67;1.67;;;27.60;99.60;;;;;;5076281;28;20217;-72
2021/11/09 05:30:49;;;;;;;7.00;1.67;;;27.40;99.40;;;;;;5073450;28;20207;-72
2021/11/09 05:33:18;;;;;;;6.50;2.00;;;28.00;99.20;;;;;;5075509;28;21464;-71
2021/11/09 05:35:46;;;;;;;15.80;3.30;;;28.00;98.50;;;;;;5071821;28;20264;-73
2021/11/09 05:38:15;;;;;;;6.63;1.83;;;28.30;98.40;;;;;;5077291;28;20270;-70
2021/11/09 05:40:52;;;;;;;10.50;1.60;;;28.40;98.60;;;;;;5074049;28;20604;-71
2021/11/09 05:43:20;;;;;;;12.40;1.97;;;28.40;98.10;;;;;;5071899;28;20252;-72
2021/11/09 05:45:47;;;;;;;6.67;1.87;;;27.80;98.70;;;;;;5070594;28;20661;-72
2021/11/09 05:48:15;;;;;;;8.57;2.10;;;27.60;99.10;;;;;;5074348;28;20179;-73
2021/11/09 05:50:43;;;;;;;10.07;1.93;;;28.10;98.80;;;;;;5075192;28;20658;-71
2021/11/09 05:53:11;;;;;;;9.83;2.07;;;28.20;98.80;;;;;;5074820;28;20178;-69
2021/11/09 05:55:38;;;;;;;6.93;1.90;;;28.20;98.60;;;;;;5075569;28;20187;-71
2021/11/09 05:58:06;;;;;;;6.70;1.90;;;27.80;99.10;;;;;;5073291;28;20187;-71
2021/11/09 06:00:33;;;;;;;9.60;1.93;;;27.40;99.40;;;;;;5077926;28;20178;-71
2021/11/09 06:03:01;;;;;;;5.30;1.47;;;27.40;99.60;;;;;;5072543;28;20296;-72
2021/11/09 06:05:28;;;;;;;8.60;2.17;;;27.70;99.50;;;;;;5073278;28;20537;-70
2021/11/09 06:07:55;;;;;;;10.13;1.73;;;27.70;99.40;;;;;;5072351;28;20699;-71
2021/11/09 06:10:23;;;;;;;7.40;1.37;;;27.90;99.60;;;;;;5071841;28;20187;-71
2021/11/09 06:12:50;;;;;;;8.90;1.70;;;26.90;99.60;;;;;;5072831;28;20273;-74
2021/11/09 06:15:18;;;;;;;8.67;1.50;;;26.90;99.90;;;;;;5073879;28;20553;-70
2021/11/09 06:17:45;;;;;;;11.43;2.00;;;27.20;99.90;;;;;;5073527;28;20638;-75
2021/11/09 06:20:13;;;;;;;4.00;1.37;;;26.90;99.90;;;;;;5070780;28;23463;-71
2021/11/09 06:22:42;;;;;;;5.53;1.30;;;26.90;99.90;;;;;;5073715;28;20574;-72
2021/11/09 06:25:09;;;;;;;7.20;1.77;;;26.70;99.90;;;;;;5074306;28;20183;-71
2021/11/09 06:27:37;;;;;;;4.93;1.40;;;26.50;99.90;;;;;;5073699;28;20217;-71
2021/11/09 06:30:06;;;;;;;4.50;1.50;;;26.00;99.90;;;;;;5073665;28;20535;-72
2021/11/09 06:32:34;;;;;;;7.37;1.50;;;26.40;99.90;;;;;;5074149;28;20171;-68
2021/11/09 06:35:02;;;;;;;5.93;1.53;;;26.70;99.90;;;;;;5070442;28;20175;-71
2021/11/09 06:37:31;;;;;;;6.53;1.40;;;26.20;99.90;;;;;;5059791;28;20191;-68
2021/11/09 06:39:58;;;;;;;6.03;1.67;;;26.60;99.90;;;;;;5072337;28;20194;-68
2021/11/09 06:42:26;;;;;;;8.53;1.73;;;26.70;99.90;;;;;;5073891;28;20187;-72
2021/11/09 06:44:53;;;;;;;6.23;1.43;;;26.70;99.90;;;;;;5073216;28;20578;-71
2021/11/09 06:47:21;;;;;;;6.90;1.50;;;26.60;99.90;;;;;;5072201;28;20281;-72
2021/11/09 06:49:48;;;;;;;7.17;1.43;;;26.80;99.90;;;;;;5069439;28;20187;-71
2021/11/09 06:52:16;;;;;;;4.73;1.20;;;26.70;99.90;;;;;;5062137;28;20187;-71
2021/11/09 06:54:44;;;;;;;5.23;1.20;;;26.10;99.90;;;;;;5064135;28;20325;-69
2021/11/09 06:57:12;;;;;;;5.00;1.17;;;26.30;99.90;;;;;;5066285;28;20183;-71
2021/11/09 06:59:40;;;;;;;3.77;1.17;;;25.70;99.90;;;;;;5071577;28;20206;-71
2021/11/09 07:02:07;;;;;;;7.80;1.17;;;26.20;99.90;;;;;;5071460;28;20614;-70
2021/11/09 07:04:35;;;;;;;7.70;1.40;;;26.50;99.90;;;;;;5070417;28;20699;-70
2021/11/09 07:07:03;;;;;;;6.90;1.30;;;25.90;99.90;;;;;;5071996;28;20183;-71
2021/11/09 07:09:31;;;;;;;3.97;1.37;;;25.50;99.90;;;;;;5072221;28;20640;-71
2021/11/09 07:11:58;;;;;;;6.83;1.80;;;25.20;99.90;;;;;;5071743;28;20211;-72
2021/11/09 07:14:26;;;;;;;8.47;1.50;;;25.20;99.90;;;;;;5072292;28;20202;-70
2021/11/09 07:16:53;;;;;;;5.87;1.57;;;25.00;99.90;;;;;;5072800;28;20179;-73
2021/11/09 07:19:21;;;;;;;5.60;1.20;;;25.10;99.90;;;;;;5073134;28;20179;-72
2021/11/09 07:21:51;;;;;;;8.30;1.60;;;24.90;99.90;;;;;;5073045;28;20183;-71
2021/11/09 07:24:18;;;;;;;3.30;1.10;;;24.90;99.90;;;;;;5072945;28;20275;-70
2021/11/09 07:26:46;;;;;;;4.57;1.27;;;24.80;99.90;;;;;;5073185;28;20174;-71
2021/11/09 07:29:13;;;;;;;7.47;1.60;;;24.40;99.90;;;;;;5073268;28;20186;-71
2021/11/09 07:31:40;;;;;;;4.93;1.40;;;23.80;99.90;;;;;;5056834;28;20179;-71
2021/11/09 07:34:08;;;;;;;5.43;1.80;;;23.50;99.90;;;;;;5055837;28;20183;-72
2021/11/09 07:36:37;;;;;;;5.90;1.43;;;23.40;99.90;;;;;;5073121;28;20180;-71
2021/11/09 07:39:07;;;;;;;4.57;1.80;;;23.20;99.90;;;;;;5072779;28;20503;-73
2021/11/09 07:41:34;;;;;;;5.37;1.30;;;23.20;99.90;;;;;;5071646;28;20178;-72
2021/11/09 07:44:03;;;;;;;9.20;1.70;;;22.80;99.90;;;;;;5068091;28;20207;-74
2021/11/09 07:46:34;;;;;;;5.60;1.10;;;22.60;99.90;;;;;;5072916;28;20183;-73
2021/11/09 07:49:02;;;;;;;4.47;1.20;;;22.40;99.90;;;;;;5072410;28;20186;-71
2021/11/09 07:51:30;;;;;;;7.03;1.43;;;22.50;99.90;;;;;;5073069;28;20250;-73
2021/11/09 07:53:59;;;;;;;7.53;2.33;;;22.30;99.90;;;;;;5072446;28;20746;-73
2021/11/09 07:56:32;;;;;;;6.67;1.50;;;22.40;99.90;;;;;;5073001;28;20199;-71
2021/11/09 08:01:40;;;;;;;2.60;1.27;;;22.20;99.90;;;;;;5072298;28;20649;-74
2021/11/09 08:07:00;;;;;;;4.17;1.50;;;21.90;99.90;;;;;;5072875;28;20573;-70
2021/11/09 08:09:28;;;;;;;5.90;1.40;;;21.70;99.90;;;;;;5069675;28;20187;-70
2021/11/09 08:12:01;;;;;;;5.10;1.70;;;21.80;99.90;;;;;;5071049;28;20215;-70
2021/11/09 08:14:29;;;;;;;8.07;1.67;;;21.90;99.90;;;;;;5071736;28;20194;-71
2021/11/09 08:16:57;;;;;;;5.47;1.30;;;21.90;99.90;;;;;;5068967;28;20271;-70
2021/11/09 08:19:24;;;;;;;7.90;1.60;;;21.90;99.90;;;;;;5068985;28;20179;-70
2021/11/09 08:21:56;;;;;;;5.10;1.47;;;21.80;99.90;;;;;;5064344;28;20190;-72
2021/11/09 08:24:24;;;;;;;7.00;1.93;;;21.80;99.90;;;;;;5066580;28;20223;-70
2021/11/09 08:26:53;;;;;;;4.50;1.50;;;21.70;99.90;;;;;;5069299;28;20526;-71
2021/11/09 08:29:25;;;;;;;5.00;1.37;;;21.60;99.90;;;;;;5072029;28;20630;-70
2021/11/09 08:31:54;;;;;;;9.33;1.67;;;21.60;99.90;;;;;;5070660;28;20187;-71
2021/11/09 08:34:22;;;;;;;5.50;1.30;;;21.50;99.90;;;;;;5071676;28;20211;-71
2021/11/09 08:36:50;;;;;;;4.80;1.17;;;21.30;99.90;;;;;;5069870;28;20191;-72
2021/11/09 08:39:26;;;;;;;5.87;1.37;;;21.30;99.90;;;;;;5066680;28;20183;-70
2021/11/09 08:42:01;;;;;;;5.47;1.10;;;21.20;99.90;;;;;;5063527;28;20179;-71
2021/11/09 08:44:34;;;;;;;5.13;1.30;;;21.20;99.90;;;;;;5065907;28;20213;-70
2021/11/09 08:47:02;;;;;;;6.30;1.40;;;21.20;99.90;;;;;;5071196;28;20710;-71
2021/11/09 08:49:31;;;;;;;4.63;1.23;;;21.20;99.90;;;;;;5071281;28;20225;-71
2021/11/09 08:52:03;;;;;;;3.17;1.07;;;21.20;99.90;;;;;;5071135;28;20258;-70
2021/11/09 08:54:35;;;;;;;6.17;2.00;;;21.10;99.90;;;;;;5074731;28;20302;-69
2021/11/09 09:05:16;;;;;;;5.10;2.20;;;21.00;99.90;;;;;;5074588;28;20597;-71
2021/11/09 09:07:46;;;;;;;8.63;5.73;;;21.00;99.90;;;;;;5074731;28;20190;-71
2021/11/09 09:10:15;;;;;;;3.27;1.20;;;21.00;99.90;;;;;;5073328;28;20542;-70
2021/11/09 09:12:43;;;;;;;3.73;1.10;;;21.00;99.90;;;;;;5071013;28;20286;-71
2021/11/09 09:15:14;;;;;;;3.00;1.17;;;21.00;99.90;;;;;;5072378;28;20179;-74
2021/11/09 09:17:42;;;;;;;9.53;1.40;;;20.90;99.90;;;;;;5073553;28;20187;-71
2021/11/09 09:20:16;;;;;;;6.23;1.20;;;21.00;99.90;;;;;;5074998;28;20245;-71
2021/11/09 09:23:03;;;;;;;6.77;1.77;;;21.00;99.90;;;;;;5074341;28;20270;-71
2021/11/09 09:26:02;;;;;;;5.17;1.53;;;21.00;99.90;;;;;;5070673;28;20195;-71
2021/11/09 09:53:25;;;;;;;23.17;11.83;;;20.80;99.90;;;;;;5074855;28;20189;-71
2021/11/09 09:55:56;;;;;;;6.50;2.00;;;20.80;99.90;;;;;;5074530;28;20187;-71
2021/11/09 09:58:24;;;;;;;7.13;1.37;;;20.80;99.90;;;;;;5074728;28;20172;-71
2021/11/09 10:00:53;;;;;;;5.27;1.43;;;20.80;99.90;;;;;;5074549;28;20171;-71
2021/11/09 10:03:31;;;;;;;5.07;1.50;;;20.80;99.90;;;;;;5074389;28;20221;-71
2021/11/09 10:06:04;;;;;;;9.93;1.33;;;20.80;99.90;;;;;;5073522;28;20217;-71
2021/11/09 10:08:49;;;;;;;8.67;1.60;;;20.70;99.90;;;;;;5074442;28;20179;-71
2021/11/09 10:11:36;;;;;;;5.07;1.20;;;20.80;99.90;;;;;;5073460;28;20183;-71
2021/11/09 10:14:06;;;;;;;13.77;6.90;;;20.70;99.90;;;;;;5073722;28;20221;-71
2021/11/09 10:16:38;;;;;;;8.87;3.73;;;20.70;99.90;;;;;;5070583;28;20605;-71
2021/11/09 10:19:07;;;;;;;11.80;4.90;;;20.70;99.90;;;;;;5072987;28;20637;-71
2021/11/09 10:21:40;;;;;;;10.10;4.13;;;20.70;99.90;;;;;;5074042;28;20262;-71
2021/11/09 10:24:36;;;;;;;4.37;1.40;;;20.70;99.90;;;;;;5073463;28;20301;-71
2021/11/09 10:27:13;;;;;;;4.07;1.00;;;20.70;99.90;;;;;;5066459;28;20198;-71
2021/11/09 10:29:44;;;;;;;5.13;1.30;;;20.70;99.90;;;;;;5073905;28;20266;-72
2021/11/09 10:32:16;;;;;;;5.77;1.30;;;20.70;99.90;;;;;;5058763;28;20180;-71
2021/11/09 10:34:46;;;;;;;4.03;1.17;;;20.70;99.90;;;;;;5068520;28;20726;-73
2021/11/09 10:37:28;;;;;;;6.17;1.13;;;20.70;99.90;;;;;;5073259;28;20274;-71
2021/11/09 10:40:04;;;;;;;7.13;1.30;;;20.80;99.90;;;;;;5073209;28;20183;-72
2021/11/09 10:42:32;;;;;;;8.00;1.63;;;20.80;99.90;;;;;;5073405;28;20179;-73
2021/11/09 10:45:11;;;;;;;6.17;1.23;;;20.80;99.90;;;;;;5073905;28;20222;-71
2021/11/09 10:47:41;;;;;;;6.60;1.20;;;20.80;99.90;;;;;;5073361;28;20542;-72
2021/11/09 10:50:30;;;;;;;4.67;1.13;;;20.80;99.90;;;;;;5073374;28;20187;-72
2021/11/09 10:53:34;;;;;;;7.30;1.50;;;20.70;99.90;;;;;;5072632;28;20179;-72
2021/11/09 11:06:32;;;;;;;6.53;1.47;;;20.80;99.90;;;;;;5071874;28;20198;-72
2021/11/09 11:09:08;;;;;;;7.07;1.20;;;20.70;99.90;;;;;;5072653;28;20175;-71
2021/11/09 11:11:44;;;;;;;6.20;1.33;;;20.80;99.90;;;;;;5073116;28;20293;-71
2021/11/09 11:14:22;;;;;;;5.37;1.40;;;20.80;99.90;;;;;;5073597;28;20197;-71
2021/11/09 11:16:54;;;;;;;7.33;1.37;;;20.90;99.90;;;;;;5059432;28;20175;-73
2021/11/09 11:19:48;;;;;;;6.07;1.63;;;20.80;99.90;;;;;;5073273;28;20179;-71
2021/11/09 11:22:28;;;;;;;8.13;2.33;;;20.80;99.90;;;;;;5066704;28;20538;-72
2021/11/09 11:24:58;;;;;;;5.93;1.20;;;20.80;99.90;;;;;;5071303;28;20267;-71
2021/11/09 11:27:32;;;;;;;9.60;1.60;;;20.80;99.90;;;;;;5073041;28;20228;-72
2021/11/09 11:30:00;;;;;;;5.67;1.70;;;20.80;99.90;;;;;;5072238;28;20269;-71
2021/11/09 11:32:29;;;;;;;6.27;1.47;;;20.80;99.90;;;;;;5073020;28;20233;-73
2021/11/09 11:34:57;;;;;;;6.20;1.40;;;20.80;99.90;;;;;;5072979;28;20189;-71
2021/11/09 11:37:24;;;;;;;7.70;1.70;;;20.80;99.90;;;;;;5073286;28;20189;-72
2021/11/09 11:39:57;;;;;;;10.40;1.60;;;20.80;99.90;;;;;;5071860;28;20179;-71
2021/11/09 11:42:24;;;;;;;5.60;1.80;;;20.80;99.90;;;;;;5072226;28;20205;-72
2021/11/09 11:45:01;;;;;;;8.67;2.13;;;20.80;99.90;;;;;;5078246;28;20221;-72
2021/11/09 11:47:29;;;;;;;4.13;1.47;;;20.90;99.90;;;;;;5075035;28;20231;-73
2021/11/09 11:50:08;;;;;;;7.47;1.60;;;20.80;99.90;;;;;;5072348;28;20278;-72
2021/11/09 11:52:49;;;;;;;7.83;1.83;;;20.80;99.90;;;;;;5071823;28;20179;-72
2021/11/09 11:55:22;;;;;;;7.47;1.43;;;20.90;99.90;;;;;;5061512;28;20185;-72
2021/11/09 11:58:02;;;;;;;4.77;1.50;;;20.80;99.90;;;;;;5072052;28;20588;-73
2021/11/09 12:00:40;;;;;;;11.30;2.40;;;20.80;99.90;;;;;;5072484;28;20186;-73
2021/11/09 12:03:19;;;;;;;9.30;2.00;;;20.80;99.90;;;;;;5072416;28;20261;-71
2021/11/09 12:05:49;;;;;;;8.07;1.70;;;20.80;99.90;;;;;;5072818;28;20187;-72
2021/11/09 12:08:38;;;;;;;8.83;1.77;;;20.80;99.90;;;;;;5072283;28;20213;-71
2021/11/09 12:11:09;;;;;;;7.60;1.37;;;20.70;99.90;;;;;;5072868;28;20187;-71
2021/11/09 12:14:10;;;;;;;10.20;1.60;;;20.70;99.90;;;;;;5072571;28;20261;-72
2021/11/09 12:16:47;;;;;;;8.77;1.50;;;20.70;99.90;;;;;;5048271;28;20194;-72
2021/11/09 12:19:35;;;;;;;8.40;1.90;;;20.80;99.90;;;;;;5069420;28;20763;-72
2021/11/09 12:22:08;;;;;;;6.70;1.30;;;20.80;99.90;;;;;;5066082;28;20179;-72
2021/11/09 12:24:59;;;;;;;8.40;2.00;;;20.80;99.90;;;;;;5070654;28;20243;-74
2021/11/09 12:27:47;;;;;;;5.97;1.53;;;20.80;99.90;;;;;;5073135;28;20222;-71
2021/11/09 12:30:37;;;;;;;5.97;1.60;;;20.80;99.90;;;;;;5072283;28;20219;-72
2021/11/09 12:33:14;;;;;;;11.23;1.70;;;20.80;99.90;;;;;;5079003;28;20575;-73
2021/11/09 12:35:59;;;;;;;12.33;2.03;;;20.80;99.90;;;;;;5078742;28;20190;-73
2021/11/09 12:38:35;;;;;;;9.87;1.90;;;20.80;99.90;;;;;;5071907;28;20530;-75
2021/11/09 12:41:24;;;;;;;8.53;1.23;;;20.80;99.90;;;;;;5078852;28;20187;-73
2021/11/09 12:43:58;;;;;;;8.03;1.50;;;20.80;99.90;;;;;;5075836;28;20669;-72
2021/11/09 12:46:43;;;;;;;6.03;1.80;;;20.80;99.90;;;;;;5078944;28;20286;-72
2021/11/09 12:49:14;;;;;;;12.53;1.60;;;20.80;99.90;;;;;;5078775;28;20259;-71
2021/11/09 12:51:53;;;;;;;9.23;1.57;;;20.70;99.90;;;;;;5079001;28;20182;-72
2021/11/09 12:54:29;;;;;;;8.57;1.50;;;20.70;99.90;;;;;;5071054;28;20179;-74
2021/11/09 12:57:08;;;;;;;6.73;1.80;;;20.60;99.90;;;;;;5078608;28;20183;-73
2021/11/09 12:59:52;;;;;;;9.60;2.00;;;20.60;99.90;;;;;;5079165;28;20534;-72
2021/11/09 13:04:50;;;;;;;5.60;1.80;;;20.60;99.90;;;;;;5078822;28;20195;-71
2021/11/09 13:07:30;;;;;;;6.20;1.70;;;20.60;99.90;;;;;;5065168;28;20180;-72
2021/11/09 13:10:07;;;;;;;7.63;1.47;;;20.60;99.90;;;;;;5078535;28;20191;-73
2021/11/09 13:12:37;;;;;;;9.70;1.67;;;20.50;99.90;;;;;;5077459;28;20688;-71
2021/11/09 13:15:04;;;;;;;6.77;1.33;;;20.50;99.90;;;;;;5078794;28;20649;-71
2021/11/09 13:17:39;;;;;;;6.40;1.47;;;20.50;99.90;;;;;;5078588;28;20187;-72
2021/11/09 13:20:22;;;;;;;5.37;1.37;;;20.60;99.90;;;;;;5077947;28;20185;-72
2021/11/09 13:23:15;;;;;;;4.23;1.50;;;20.60;99.90;;;;;;5077975;28;20195;-71
2021/11/09 13:25:51;;;;;;;6.60;2.10;;;20.60;99.90;;;;;;5078197;28;20544;-72
2021/11/09 13:28:21;;;;;;;10.13;1.67;;;20.60;99.90;;;;;;5079098;28;20705;-71
2021/11/09 13:30:51;;;;;;;14.17;2.63;;;20.60;99.90;;;;;;5078640;28;20179;-71
2021/11/09 13:33:20;;;;;;;6.57;1.50;;;20.60;99.90;;;;;;5070174;28;20170;-72
2021/11/09 13:35:48;;;;;;;7.37;1.40;;;20.60;99.90;;;;;;5072870;28;20329;-72
2021/11/09 13:38:25;;;;;;;10.23;1.53;;;20.60;99.90;;;;;;5076228;28;20183;-71
2021/11/09 13:40:58;;;;;;;5.67;1.57;;;20.60;99.90;;;;;;5074307;28;20186;-71
2021/11/09 13:43:31;;;;;;;4.97;1.50;;;20.50;99.90;;;;;;5075498;28;20207;-71
2021/11/09 13:46:04;;;;;;;7.47;1.40;;;20.60;99.90;;;;;;5075504;28;20175;-72
2021/11/09 13:48:33;;;;;;;6.63;1.87;;;20.60;99.90;;;;;;5069550;28;20185;-71
2021/11/09 13:51:10;;;;;;;8.93;1.47;;;20.60;99.90;;;;;;5074931;28;20539;-71
2021/11/09 13:53:41;;;;;;;8.83;1.80;;;20.60;99.90;;;;;;5073541;28;20207;-71
2021/11/09 13:56:14;;;;;;;10.10;2.23;;;20.60;99.90;;;;;;5069394;28;20168;-72
2021/11/09 13:58:57;;;;;;;9.70;1.93;;;20.60;99.90;;;;;;5074871;28;20180;-71
2021/11/09 14:01:36;;;;;;;11.17;1.60;;;20.50;99.90;;;;;;5072712;28;20178;-71
2021/11/09 14:04:24;;;;;;;11.73;2.13;;;20.50;99.90;;;;;;5074985;28;20203;-71
2021/11/09 14:17:41;;;;;;;5.83;1.80;;;20.50;99.90;;;;;;5054442;28;20229;-74
2021/11/09 14:20:21;;;;;;;7.03;1.53;;;20.50;99.90;;;;;;5058459;28;20626;-73
2021/11/09 14:23:12;;;;;;;10.53;2.03;;;20.50;99.90;;;;;;5071647;28;20219;-75
2021/11/09 14:25:39;;;;;;;10.87;1.63;;;20.80;99.90;;;;;;5072237;28;20240;-73
2021/11/09 14:28:07;;;;;;;8.23;1.93;;;20.90;99.90;;;;;;5074559;28;20167;-73
2021/11/09 14:30:36;;;;;;;8.20;1.83;;;20.90;99.90;;;;;;5070621;28;20207;-74
2021/11/09 14:33:21;;;;;;;5.87;1.83;;;20.90;99.90;;;;;;5093041;28;20179;-74
2021/11/09 14:35:54;;;;;;;13.13;2.03;;;20.80;99.90;;;;;;5094879;28;20632;-74
2021/11/09 14:38:23;;;;;;;7.10;2.10;;;20.80;99.90;;;;;;5095265;28;20167;-74
2021/11/09 14:40:59;;;;;;;5.37;1.47;;;20.80;99.90;;;;;;5094586;28;20171;-72
2021/11/09 14:46:08;;;;;;;11.27;1.80;;;20.70;99.90;;;;;;5094556;28;20167;-72
2021/11/09 14:51:20;;;;;;;11.03;1.50;;;20.70;99.90;;;;;;5074021;28;20254;-72
2021/11/09 14:56:24;;;;;;;13.13;2.40;;;20.60;99.90;;;;;;5074149;28;20183;-72
2021/11/09 14:58:51;;;;;;;12.10;2.10;;;20.60;99.90;;;;;;5073896;28;20189;-73
2021/11/09 15:05:04;;;;;;;14.57;2.43;;;20.60;99.90;;;;;;5055414;28;20681;-72
2021/11/09 15:07:28;;;;;;;10.07;1.80;;;20.70;99.90;;;;;;5052793;28;20214;-71
2021/11/09 15:10:07;;;;;;;9.37;1.70;;;20.70;99.90;;;;;;5053427;28;20180;-74
2021/11/09 15:13:12;;;;;;;9.73;1.67;;;20.70;99.90;;;;;;5054497;28;20219;-74
2021/11/09 15:27:07;;;;;;;9.53;2.13;;;20.50;99.90;;;;;;5072671;28;20198;-72
2021/11/09 15:29:41;;;;;;;11.90;1.80;;;20.40;99.90;;;;;;5072681;28;20542;-71
2021/11/09 15:32:22;;;;;;;19.20;3.00;;;20.40;99.90;;;;;;5072781;28;20186;-72
2021/11/09 15:38:17;;;;;;;13.50;2.13;;;20.40;99.90;;;;;;5074415;28;20182;-74
2021/11/09 15:40:13;;;;;;;6.23;1.50;;;20.40;99.90;;;;;;5068817;28;21213;-75
2021/11/09 15:42:42;;;;;;;15.83;2.30;;;20.40;99.90;;;;;;5070737;28;20175;-73
2021/11/09 15:45:11;;;;;;;8.23;1.93;;;20.40;99.90;;;;;;5053230;28;20306;-72
2021/11/09 15:47:38;;;;;;;13.93;2.10;;;20.40;99.90;;;;;;5058938;28;20190;-73
2021/11/09 15:50:08;;;;;;;15.00;2.10;;;20.50;99.90;;;;;;5072374;28;20171;-72